createdAt,value
2023-05-23T06:41:19.584Z,46.78
2023-05-23T06:42:25.186Z,46.89
2023-05-23T06:43:31.325Z,46.44
2023-05-23T06:44:40.290Z,46.26
2023-05-23T06:45:48.026Z,46.20
2023-05-23T06:46:53.057Z,46.11
2023-05-23T06:47:57.640Z,46.07
2023-05-23T06:49:13.865Z,45.81
2023-05-23T06:50:09.116Z,45.76
2023-05-23T06:51:14.217Z,45.77
2023-05-23T06:52:18.685Z,45.70
2023-05-23T06:53:23.320Z,45.67
2023-05-23T06:54:27.892Z,45.71
2023-05-23T06:55:32.457Z,45.60
2023-05-23T06:56:38.015Z,45.42
2023-05-23T06:57:42.616Z,44.51
2023-05-23T06:58:47.334Z,45.04
2023-05-23T06:59:52.146Z,45.03
2023-05-23T07:00:57.163Z,44.72
2023-05-23T07:02:07.360Z,44.53
2023-05-23T07:03:13.142Z,44.25
2023-05-23T07:04:17.833Z,44.25
2023-05-23T07:05:22.572Z,44.17
2023-05-23T07:06:28.318Z,43.99
2023-05-23T07:07:32.819Z,43.78
2023-05-23T07:08:35.190Z,43.66
2023-05-23T07:09:42.161Z,43.60
2023-05-23T07:10:50.401Z,43.61
2023-05-23T07:12:02.741Z,43.94
2023-05-23T07:13:07.373Z,44.11
2023-05-23T07:14:12.098Z,44.20
2023-05-23T07:15:18.683Z,44.30
2023-05-23T07:16:25.169Z,44.45
2023-05-23T07:17:31.621Z,44.56
2023-05-23T07:18:38.488Z,44.65
2023-05-23T07:19:42.564Z,44.51
2023-05-23T07:20:47.388Z,44.53
2023-05-23T07:21:53.745Z,44.65
2023-05-23T07:22:59.512Z,44.73
2023-05-23T07:24:04.274Z,44.69
2023-05-23T07:25:10.517Z,44.78
2023-05-23T07:26:15.428Z,44.75
2023-05-23T07:27:19.561Z,44.74
2023-05-23T07:28:24.159Z,45.05
2023-05-23T07:29:29.659Z,45.09
2023-05-23T07:30:35.170Z,45.01
2023-05-23T07:31:39.932Z,44.94
2023-05-23T07:32:44.971Z,44.98
2023-05-23T07:33:50.342Z,45.06
2023-05-23T07:34:58.995Z,44.89
2023-05-23T07:36:04.638Z,44.75
2023-05-23T07:37:06.970Z,44.67
2023-05-23T07:38:15.041Z,44.52
2023-05-23T07:39:17.294Z,44.50
2023-05-23T07:40:21.760Z,44.38
2023-05-23T07:41:26.941Z,44.32
2023-05-23T07:42:31.422Z,44.33
2023-05-23T07:43:33.600Z,44.15
2023-05-23T07:44:38.031Z,43.76
2023-05-23T07:45:42.666Z,43.90
2023-05-23T07:46:47.958Z,44.05
2023-05-23T07:47:53.192Z,44.25
2023-05-23T07:48:58.207Z,44.25
2023-05-23T07:50:00.841Z,43.43
2023-05-23T07:51:06.506Z,43.53
2023-05-23T07:52:09.387Z,42.83
2023-05-23T07:53:15.657Z,43.30
2023-05-23T07:54:19.721Z,43.24
2023-05-23T07:55:26.003Z,43.01
2023-05-23T07:56:31.614Z,42.09
2023-05-23T07:57:36.730Z,42.64
2023-05-23T07:58:41.860Z,43.08
2023-05-23T07:59:47.076Z,43.49
2023-05-23T08:02:01.207Z,42.73
2023-05-23T08:03:06.243Z,42.14
2023-05-23T08:04:13.159Z,42.48
2023-05-23T08:05:23.046Z,42.20
2023-05-23T08:06:28.321Z,42.18
2023-05-23T08:07:31.993Z,42.30
2023-05-23T08:08:39.387Z,42.71
2023-05-23T08:09:44.954Z,42.74
2023-05-23T08:10:51.866Z,42.75
2023-05-23T08:11:58.770Z,42.60
2023-05-23T08:13:04.735Z,42.72
2023-05-23T08:14:11.354Z,42.88
2023-05-23T08:15:16.636Z,42.95
2023-05-23T08:16:23.235Z,43.04
2023-05-23T08:17:28.321Z,42.58
2023-05-23T08:18:33.046Z,42.72
2023-05-23T08:19:37.749Z,42.76
2023-05-23T08:20:43.341Z,42.55
2023-05-23T08:21:48.881Z,42.70
2023-05-23T08:22:53.974Z,43.21
2023-05-23T08:23:59.043Z,43.34
2023-05-23T08:25:03.816Z,43.17
2023-05-23T08:26:09.149Z,42.45
2023-05-23T08:27:15.240Z,42.45
2023-05-23T08:28:17.619Z,42.82
2023-05-23T08:30:32.082Z,42.57
2023-05-23T08:31:37.272Z,42.53
2023-05-23T08:32:38.777Z,42.47
2023-05-23T08:33:43.494Z,42.36
2023-05-23T08:34:48.855Z,42.29
2023-05-23T08:35:51.384Z,42.14
2023-05-23T08:37:03.432Z,42.07
2023-05-23T08:38:08.992Z,42.33
2023-05-23T08:39:14.736Z,42.14
2023-05-23T08:40:20.338Z,41.87
2023-05-23T08:41:27.817Z,42.16
2023-05-23T08:42:34.962Z,41.67
2023-05-23T08:43:40.447Z,41.29
2023-05-23T08:44:45.581Z,41.24
2023-05-23T08:45:49.805Z,41.42
2023-05-23T08:46:55.749Z,41.78
2023-05-23T08:48:09.522Z,41.62
2023-05-23T08:49:13.516Z,41.62
2023-05-23T08:50:22.770Z,41.10
2023-05-23T08:51:30.245Z,40.93
2023-05-23T08:52:36.110Z,41.08
2023-05-23T08:53:41.766Z,41.14
2023-05-23T08:54:46.302Z,41.22
2023-05-23T08:55:51.550Z,41.32
2023-05-23T08:56:56.134Z,41.53
2023-05-23T08:58:01.089Z,41.47
2023-05-23T08:59:17.208Z,41.20
2023-05-23T09:00:21.474Z,40.81
2023-05-23T09:01:26.211Z,40.73
2023-05-23T09:02:31.793Z,40.92
2023-05-23T09:03:36.592Z,40.83
2023-05-23T09:04:40.711Z,39.74
2023-05-23T09:05:45.074Z,40.23
2023-05-23T09:06:49.711Z,40.55
2023-05-23T09:07:52.940Z,40.67
2023-05-23T09:08:58.418Z,40.55
2023-05-23T09:10:04.208Z,40.71
2023-05-23T09:11:09.324Z,40.48
2023-05-23T09:12:14.837Z,40.70
2023-05-23T09:13:21.988Z,40.60
2023-05-23T09:14:29.549Z,40.55
2023-05-23T09:15:34.322Z,40.30
2023-05-23T09:16:40.414Z,39.74
2023-05-23T09:17:47.673Z,39.13
2023-05-23T09:18:49.920Z,39.37
2023-05-23T09:20:02.858Z,39.11
2023-05-23T09:21:10.921Z,38.86
2023-05-23T09:22:17.332Z,39.26
2023-05-23T09:23:23.525Z,39.33
2023-05-23T09:24:34.176Z,39.31
2023-05-23T09:25:39.522Z,39.31
2023-05-23T09:26:44.391Z,39.36
2023-05-23T09:27:50.136Z,39.42
2023-05-23T09:28:56.465Z,39.39
2023-05-23T09:30:01.205Z,39.27
2023-05-23T09:32:16.878Z,39.23
2023-05-23T09:33:21.807Z,38.78
2023-05-23T09:34:26.538Z,39.02
2023-05-23T09:35:31.661Z,39.00
2023-05-23T09:36:37.822Z,39.02
2023-05-23T09:37:45.114Z,38.75
2023-05-23T09:38:49.895Z,38.93
2023-05-23T09:39:54.691Z,38.90
2023-05-23T09:40:59.328Z,38.43
2023-05-23T09:42:02.773Z,38.38
2023-05-23T09:43:05.304Z,38.63
2023-05-23T09:44:11.096Z,38.94
2023-05-23T09:45:16.492Z,38.86
2023-05-23T09:46:20.323Z,38.79
2023-05-23T09:48:35.366Z,38.72
2023-05-23T09:49:45.592Z,38.77
2023-05-23T09:50:50.939Z,38.52
2023-05-23T09:51:59.822Z,38.21
2023-05-23T09:53:05.173Z,38.17
2023-05-23T09:54:11.427Z,37.79
2023-05-23T09:55:13.853Z,37.68
2023-05-23T09:56:16.813Z,37.59
2023-05-23T09:57:19.049Z,37.53
2023-05-23T09:58:23.279Z,37.31
2023-05-23T09:59:27.888Z,37.18
2023-05-23T10:00:30.325Z,36.86
2023-05-23T10:01:35.286Z,36.96
2023-05-23T10:02:58.545Z,36.99
2023-05-23T10:04:03.295Z,37.00
2023-05-23T10:05:08.732Z,37.11
2023-05-23T10:06:18.486Z,37.19
2023-05-23T10:07:22.946Z,37.59
2023-05-23T10:08:31.573Z,37.73
2023-05-23T10:09:35.922Z,37.88
2023-05-23T10:12:09.363Z,37.49
2023-05-23T10:13:11.622Z,37.27
2023-05-23T10:14:13.740Z,37.27
2023-05-23T10:15:16.041Z,37.26
2023-05-23T10:18:05.194Z,36.98
2023-05-23T10:20:23.475Z,36.64
2023-05-23T10:21:34.661Z,36.40
2023-05-23T10:22:39.236Z,36.57
2023-05-23T10:23:43.869Z,36.55
2023-05-23T10:24:49.075Z,36.39
2023-05-23T10:25:51.481Z,36.63
2023-05-23T10:26:56.988Z,36.64
2023-05-23T10:28:03.911Z,36.58
2023-05-23T10:29:09.399Z,36.71
2023-05-23T10:30:16.280Z,36.59
2023-05-23T10:31:18.456Z,36.79
2023-05-23T10:32:23.396Z,36.73
2023-05-23T10:33:34.102Z,36.68
2023-05-23T10:35:05.385Z,36.60
2023-05-23T10:36:31.911Z,36.39
2023-05-23T10:39:01.942Z,36.17
2023-05-23T10:40:29.901Z,36.57
2023-05-23T10:41:46.788Z,36.63
2023-05-23T10:43:01.917Z,36.66
2023-05-23T10:44:32.627Z,36.52
2023-05-23T10:45:43.932Z,36.51
2023-05-23T10:46:56.033Z,36.90
2023-05-23T10:48:01.843Z,36.79
2023-05-23T10:50:13.670Z,36.91
2023-05-23T10:51:18.716Z,36.85
2023-05-23T10:52:25.288Z,36.65
2023-05-23T10:53:29.763Z,36.61
2023-05-23T10:54:39.056Z,37.06
2023-05-23T10:55:44.142Z,36.98
2023-05-23T10:56:48.760Z,36.90
2023-05-23T10:58:11.451Z,37.00
2023-05-23T10:59:22.608Z,36.71
2023-05-23T11:00:27.095Z,36.60
2023-05-23T11:01:31.670Z,36.72
2023-05-23T11:02:33.963Z,36.47
2023-05-23T11:03:50.455Z,36.44
2023-05-23T11:05:20.108Z,36.63
2023-05-23T11:06:34.951Z,36.56
2023-05-23T11:07:39.571Z,36.71
2023-05-23T11:08:48.310Z,36.35
2023-05-23T11:10:10.979Z,36.39
2023-05-23T11:11:12.982Z,36.30
2023-05-23T11:12:17.851Z,36.16
2023-05-23T11:13:24.032Z,36.30
2023-05-23T11:14:34.639Z,36.45
2023-05-23T11:16:53.525Z,36.42
2023-05-23T11:18:00.026Z,36.64
2023-05-23T11:19:26.309Z,36.99
2023-05-23T11:20:28.865Z,37.09
2023-05-23T11:21:31.577Z,36.80
2023-05-23T11:22:37.230Z,36.83
2023-05-23T11:23:42.364Z,36.74
2023-05-23T11:24:54.283Z,36.83
2023-05-23T11:25:59.433Z,36.96
2023-05-23T11:27:04.523Z,36.91
2023-05-23T11:28:09.510Z,36.92
2023-05-23T11:29:14.475Z,36.78
2023-05-23T11:30:20.135Z,36.89
2023-05-23T11:31:24.791Z,36.91
2023-05-23T11:32:29.001Z,37.07
2023-05-23T11:33:33.772Z,36.97
2023-05-23T11:34:39.978Z,36.97
2023-05-23T11:35:45.665Z,37.03
2023-05-23T11:38:02.270Z,37.45
2023-05-23T11:39:06.961Z,37.55
2023-05-23T11:40:37.377Z,37.44
2023-05-23T11:41:43.476Z,37.25
2023-05-23T11:42:48.136Z,37.30
2023-05-23T11:43:51.479Z,37.17
2023-05-23T11:44:56.243Z,37.14
2023-05-23T11:47:20.457Z,37.14
2023-05-23T11:48:23.296Z,37.30
2023-05-23T11:49:31.444Z,37.38
2023-05-23T11:50:36.632Z,37.40
2023-05-23T11:51:42.501Z,37.27
2023-05-23T11:52:47.610Z,37.24
2023-05-23T11:53:52.169Z,37.14
2023-05-23T11:55:00.116Z,37.17
2023-05-23T11:56:01.674Z,37.05
2023-05-23T11:57:04.389Z,37.11
2023-05-23T11:58:08.550Z,36.91
2023-05-23T11:59:10.775Z,37.04
2023-05-23T12:00:17.841Z,36.86
2023-05-23T12:01:22.571Z,36.72
2023-05-23T12:02:28.127Z,36.42
2023-05-23T12:03:33.179Z,36.65
2023-05-23T12:04:37.587Z,36.17
2023-05-23T12:05:41.841Z,36.10
2023-05-23T12:06:50.828Z,36.08
2023-05-23T12:07:55.823Z,35.80
2023-05-23T12:09:01.398Z,35.54
2023-05-23T12:10:08.735Z,35.70
2023-05-23T12:11:11.892Z,35.37
2023-05-23T12:12:14.337Z,35.33
2023-05-23T12:13:18.756Z,35.37
2023-05-23T12:14:21.052Z,35.51
2023-05-23T12:15:26.273Z,35.48
2023-05-23T12:16:29.778Z,35.64
2023-05-23T12:17:34.266Z,35.79
2023-05-23T12:18:39.596Z,35.77
2023-05-23T12:19:46.557Z,35.87
2023-05-23T12:20:52.663Z,36.01
2023-05-23T12:21:57.858Z,35.96
2023-05-23T12:23:04.390Z,36.18
2023-05-23T12:25:26.822Z,36.39
2023-05-23T12:26:31.488Z,36.27
2023-05-23T12:27:38.038Z,36.58
2023-05-23T12:28:44.559Z,36.19
2023-05-23T12:29:53.434Z,36.16
2023-05-23T12:30:59.358Z,36.13
2023-05-23T12:32:04.506Z,36.25
2023-05-23T12:33:10.622Z,36.19
2023-05-23T12:34:15.305Z,36.31
2023-05-23T12:35:20.589Z,36.40
2023-05-23T12:36:29.578Z,36.33
2023-05-23T12:37:34.119Z,36.44
2023-05-23T12:38:36.697Z,36.53
2023-05-23T12:39:41.125Z,36.94
2023-05-23T12:40:45.636Z,36.85
2023-05-23T12:41:50.909Z,36.62
2023-05-23T12:42:54.611Z,36.48
2023-05-23T12:43:59.073Z,36.47
2023-05-23T12:45:03.527Z,36.61
2023-05-23T12:46:10.008Z,36.67
2023-05-23T12:47:12.432Z,36.22
2023-05-23T12:48:14.942Z,36.22
2023-05-23T12:49:19.845Z,36.01
2023-05-23T12:50:24.467Z,36.08
2023-05-23T12:51:29.149Z,35.92
2023-05-23T12:52:33.841Z,35.99
2023-05-23T12:53:39.480Z,36.40
2023-05-23T12:54:44.493Z,36.07
2023-05-23T12:55:47.006Z,35.49
2023-05-23T12:56:49.280Z,35.55
2023-05-23T12:57:53.643Z,35.70
2023-05-23T12:58:58.160Z,35.72
2023-05-23T13:00:03.266Z,35.71
2023-05-23T13:01:08.135Z,35.80
2023-05-23T13:02:12.805Z,35.91
2023-05-23T13:03:14.980Z,35.43
2023-05-23T13:04:19.406Z,35.31
2023-05-23T13:05:24.046Z,35.08
2023-05-23T13:06:29.308Z,35.19
2023-05-23T13:07:34.448Z,34.94
2023-05-23T13:08:39.678Z,35.07
2023-05-23T13:09:44.256Z,35.51
2023-05-23T13:10:46.799Z,35.82
2023-05-23T13:11:50.915Z,35.54
2023-05-23T13:12:55.507Z,35.14
2023-05-23T13:14:00.541Z,34.82
2023-05-23T13:15:08.181Z,34.85
2023-05-23T13:16:12.789Z,34.60
2023-05-23T13:17:17.813Z,34.56
2023-05-23T13:18:23.099Z,34.68
2023-05-23T13:19:28.189Z,34.83
2023-05-23T13:20:32.620Z,34.64
2023-05-23T13:21:37.245Z,34.75
2023-05-23T13:22:40.641Z,34.80
2023-05-23T13:23:44.893Z,35.09
2023-05-23T13:24:49.448Z,35.01
2023-05-23T13:25:55.797Z,34.79
2023-05-23T13:27:00.451Z,34.91
2023-05-23T13:28:04.948Z,35.05
2023-05-23T13:29:07.132Z,34.58
2023-05-23T13:30:11.599Z,34.45
2023-05-23T13:31:13.874Z,34.76
2023-05-23T13:32:18.152Z,35.14
2023-05-23T13:33:20.491Z,35.15
2023-05-23T13:34:25.780Z,35.10
2023-05-23T13:35:27.967Z,34.70
2023-05-23T13:36:32.939Z,34.35
2023-05-23T13:37:35.178Z,34.79
2023-05-23T13:38:39.329Z,34.54
2023-05-23T13:39:41.567Z,35.14
2023-05-23T13:40:47.784Z,34.67
2023-05-23T13:41:52.880Z,34.62
2023-05-23T13:42:58.199Z,34.67
2023-05-23T13:44:02.536Z,34.58
2023-05-23T13:45:11.698Z,34.30
2023-05-23T13:46:14.413Z,34.11
2023-05-23T13:47:16.643Z,33.89
2023-05-23T13:48:21.584Z,34.15
2023-05-23T13:49:23.872Z,34.33
2023-05-23T13:50:29.049Z,34.29
2023-05-23T13:51:34.585Z,34.21
2023-05-23T13:52:42.102Z,34.41
2023-05-23T13:53:45.764Z,34.36
2023-05-23T13:54:53.026Z,34.53
2023-05-23T13:55:58.024Z,34.49
2023-05-23T13:57:00.543Z,34.49
2023-05-23T13:58:04.612Z,33.79
2023-05-23T13:59:09.145Z,33.68
2023-05-23T14:00:15.604Z,33.69
2023-05-23T14:01:21.103Z,33.30
2023-05-23T14:02:23.422Z,33.30
2023-05-23T14:03:25.503Z,33.54
2023-05-23T14:04:30.620Z,33.58
2023-05-23T14:05:32.764Z,34.21
2023-05-23T14:06:35.387Z,33.59
2023-05-23T14:07:40.434Z,33.55
2023-05-23T14:08:45.114Z,33.65
2023-05-23T14:09:50.449Z,33.64
2023-05-23T14:10:55.006Z,33.50
2023-05-23T14:11:57.320Z,33.17
2023-05-23T14:12:59.718Z,33.50
2023-05-23T14:14:01.904Z,33.81
2023-05-23T14:15:04.806Z,33.62
2023-05-23T14:16:07.564Z,33.63
2023-05-23T14:18:24.055Z,33.67
2023-05-23T14:19:28.286Z,33.38
2023-05-23T14:20:32.988Z,33.29
2023-05-23T14:21:35.419Z,33.50
2023-05-23T14:22:37.850Z,33.69
2023-05-23T14:23:40.222Z,34.08
2023-05-23T14:24:42.407Z,34.31
2023-05-23T14:25:44.835Z,33.57
2023-05-23T14:26:47.315Z,33.38
2023-05-23T14:27:49.457Z,33.58
2023-05-23T14:28:53.699Z,33.79
2023-05-23T14:29:58.204Z,33.54
2023-05-23T14:31:03.427Z,33.63
2023-05-23T14:32:09.036Z,33.65
2023-05-23T14:33:12.321Z,33.80
2023-05-23T14:34:14.552Z,33.41
2023-05-23T14:35:18.924Z,33.55
2023-05-23T14:36:21.317Z,33.67
2023-05-23T14:37:25.434Z,33.80
2023-05-23T14:38:27.761Z,33.85
2023-05-23T14:39:32.592Z,33.85
2023-05-23T14:40:37.399Z,33.77
2023-05-23T14:41:42.440Z,33.74
2023-05-23T14:42:44.558Z,33.61
2023-05-23T14:43:48.755Z,34.33
2023-05-23T14:44:55.453Z,33.56
2023-05-23T14:46:01.171Z,33.51
2023-05-23T14:47:06.928Z,33.75
2023-05-23T14:48:12.054Z,33.63
2023-05-23T14:49:16.657Z,33.64
2023-05-23T14:50:21.518Z,33.25
2023-05-23T14:51:42.999Z,33.34
2023-05-23T14:52:33.597Z,33.32
2023-05-23T14:53:38.221Z,33.32
2023-05-23T14:54:42.719Z,33.27
2023-05-23T14:55:48.188Z,33.53
2023-05-23T14:56:53.513Z,33.35
2023-05-23T14:57:58.202Z,33.35
2023-05-23T14:59:03.376Z,33.42
2023-05-23T15:00:08.210Z,33.74
2023-05-23T15:01:13.820Z,33.43
2023-05-23T15:02:21.404Z,33.57
2023-05-23T15:03:26.610Z,34.22
2023-05-23T15:04:30.978Z,33.71
2023-05-23T15:05:35.394Z,34.36
2023-05-23T15:06:41.104Z,34.15
2023-05-23T15:07:46.171Z,33.84
2023-05-23T15:08:50.739Z,33.72
2023-05-23T15:09:55.470Z,33.65
2023-05-23T15:11:00.182Z,33.47
2023-05-23T15:12:05.118Z,33.70
2023-05-23T15:13:09.602Z,33.58
2023-05-23T15:14:14.759Z,33.73
2023-05-23T15:15:20.681Z,33.68
2023-05-23T15:16:26.500Z,33.71
2023-05-23T15:18:41.797Z,33.68
2023-05-23T15:19:46.232Z,33.72
2023-05-23T15:20:50.795Z,33.99
2023-05-23T15:21:56.061Z,33.89
2023-05-23T15:23:00.951Z,35.09
2023-05-23T15:24:06.662Z,33.59
2023-05-23T15:25:12.249Z,33.41
2023-05-23T15:26:15.156Z,34.33
2023-05-23T15:27:20.970Z,33.45
2023-05-23T15:28:23.638Z,34.09
2023-05-23T15:29:26.012Z,33.11
2023-05-23T15:30:30.985Z,32.89
2023-05-23T15:31:36.287Z,32.79
2023-05-23T15:32:40.784Z,32.85
2023-05-23T15:33:45.928Z,32.92
2023-05-23T15:34:50.546Z,32.82
2023-05-23T15:35:55.638Z,32.79
2023-05-23T15:37:00.167Z,32.60
2023-05-23T15:38:04.684Z,32.69
2023-05-23T15:39:08.956Z,32.70
2023-05-23T15:40:14.848Z,32.87
2023-05-23T15:41:20.061Z,32.99
2023-05-23T15:42:24.600Z,33.18
2023-05-23T15:43:29.086Z,33.02
2023-05-23T15:44:33.685Z,33.02
2023-05-23T15:45:38.943Z,33.22
2023-05-23T15:46:43.749Z,33.31
2023-05-23T15:47:48.261Z,33.33
2023-05-23T15:48:52.860Z,33.32
2023-05-23T15:49:57.458Z,33.33
2023-05-23T15:51:02.142Z,33.33
2023-05-23T15:52:07.833Z,33.40
2023-05-23T15:53:12.457Z,33.48
2023-05-23T15:54:17.176Z,33.55
2023-05-23T15:55:22.054Z,33.60
2023-05-23T15:56:26.654Z,34.22
2023-05-23T15:57:31.361Z,34.24
2023-05-23T15:58:35.870Z,33.82
2023-05-23T15:59:39.217Z,33.99
2023-05-23T16:00:43.762Z,34.06
2023-05-23T16:01:48.256Z,34.68
2023-05-23T16:02:50.926Z,34.17
2023-05-23T16:03:53.391Z,34.24
2023-05-23T16:04:57.792Z,34.03
2023-05-23T16:06:02.031Z,34.03
2023-05-23T16:07:07.447Z,34.13
2023-05-23T16:08:11.888Z,34.10
2023-05-23T16:09:16.403Z,34.15
2023-05-23T16:10:20.983Z,34.13
2023-05-23T16:11:25.738Z,34.25
2023-05-23T16:12:30.351Z,34.26
2023-05-23T16:13:35.274Z,34.39
2023-05-23T16:14:40.232Z,34.50
2023-05-23T16:15:45.235Z,34.56
2023-05-23T16:16:47.770Z,34.49
2023-05-23T16:17:52.367Z,34.61
2023-05-23T16:18:56.896Z,34.61
2023-05-23T16:20:02.013Z,34.67
2023-05-23T16:21:06.661Z,34.62
2023-05-23T16:22:11.144Z,34.79
2023-05-23T16:23:16.894Z,34.70
2023-05-23T16:24:21.923Z,34.77
2023-05-23T16:25:26.592Z,34.73
2023-05-23T16:26:31.235Z,34.67
2023-05-23T16:27:36.281Z,34.74
2023-05-23T16:28:40.843Z,34.64
2023-05-23T16:29:45.654Z,34.76
2023-05-23T16:30:50.280Z,34.80
2023-05-23T16:31:54.980Z,34.89
2023-05-23T16:32:59.531Z,34.97
2023-05-23T16:34:01.870Z,34.94
2023-05-23T16:35:09.316Z,34.85
2023-05-23T16:36:14.561Z,34.83
2023-05-23T16:37:19.387Z,34.68
2023-05-23T16:38:23.983Z,34.61
2023-05-23T16:39:29.005Z,34.55
2023-05-23T16:40:33.696Z,34.50
2023-05-23T16:41:38.359Z,34.46
2023-05-23T16:42:43.584Z,34.29
2023-05-23T16:43:48.624Z,34.51
2023-05-23T16:44:53.123Z,34.59
2023-05-23T16:45:58.193Z,34.66
2023-05-23T16:47:02.828Z,34.74
2023-05-23T16:48:07.379Z,34.70
2023-05-23T16:49:12.457Z,34.83
2023-05-23T16:50:17.234Z,34.88
2023-05-23T16:51:21.870Z,34.94
2023-05-23T16:52:26.480Z,34.98
2023-05-23T16:53:31.500Z,34.95
2023-05-23T16:54:36.107Z,35.05
2023-05-23T16:55:41.026Z,35.02
2023-05-23T16:56:45.877Z,34.89
2023-05-23T16:57:50.626Z,34.71
2023-05-23T16:58:55.295Z,34.82
2023-05-23T16:59:59.816Z,34.83
2023-05-23T17:01:05.005Z,34.82
2023-05-23T17:03:20.272Z,35.06
2023-05-23T17:04:24.558Z,34.95
2023-05-23T17:05:29.541Z,35.04
2023-05-23T17:06:34.694Z,35.08
2023-05-23T17:07:39.957Z,35.15
2023-05-23T17:08:44.602Z,35.32
2023-05-23T17:09:49.201Z,35.49
2023-05-23T17:10:51.678Z,35.52
2023-05-23T17:11:55.811Z,35.59
2023-05-23T17:13:00.806Z,35.60
2023-05-23T17:14:05.529Z,35.70
2023-05-23T17:15:11.357Z,35.71
2023-05-23T17:16:17.976Z,35.85
2023-05-23T17:17:24.072Z,35.95
2023-05-23T17:18:26.347Z,36.03
2023-05-23T17:19:29.259Z,36.14
2023-05-23T17:20:33.912Z,36.32
2023-05-23T17:21:38.541Z,36.42
2023-05-23T17:22:43.165Z,36.56
2023-05-23T17:23:48.214Z,36.60
2023-05-23T17:24:53.341Z,36.72
2023-05-23T17:25:57.621Z,36.92
2023-05-23T17:27:02.203Z,37.04
2023-05-23T17:28:05.715Z,37.06
2023-05-23T17:29:10.211Z,37.17
2023-05-23T17:30:13.581Z,37.27
2023-05-23T17:31:17.912Z,37.28
2023-05-23T17:32:23.035Z,37.47
2023-05-23T17:33:27.595Z,37.58
2023-05-23T17:34:32.250Z,37.68
2023-05-23T17:35:36.817Z,37.72
2023-05-23T17:36:41.512Z,37.81
2023-05-23T17:37:46.038Z,37.81
2023-05-23T17:38:50.694Z,37.83
2023-05-23T17:39:57.565Z,37.92
2023-05-23T17:41:01.634Z,38.01
2023-05-23T17:42:07.193Z,38.08
2023-05-23T17:43:12.121Z,38.19
2023-05-23T17:44:16.856Z,38.31
2023-05-23T17:45:21.467Z,38.39
2023-05-23T17:46:27.241Z,38.44
2023-05-23T17:47:31.844Z,38.52
2023-05-23T17:48:47.130Z,38.59
2023-05-23T17:49:43.030Z,38.72
2023-05-23T17:50:47.584Z,38.84
2023-05-23T17:51:49.810Z,38.92
2023-05-23T17:52:53.980Z,38.97
2023-05-23T17:53:58.766Z,39.04
2023-05-23T17:55:03.796Z,39.10
2023-05-23T17:56:09.291Z,39.20
2023-05-23T17:57:13.548Z,39.38
2023-05-23T17:58:18.024Z,39.49
2023-05-23T17:59:20.377Z,39.58
2023-05-23T18:00:22.841Z,39.80
2023-05-23T18:01:25.220Z,39.83
2023-05-23T18:02:28.553Z,39.93
2023-05-23T18:03:31.028Z,39.97
2023-05-23T18:04:33.216Z,40.09
2023-05-23T18:05:35.342Z,40.18
2023-05-23T18:06:40.021Z,40.26
2023-05-23T18:07:42.261Z,40.37
2023-05-23T18:08:44.578Z,40.43
2023-05-23T18:09:46.789Z,40.56
2023-05-23T18:10:49.038Z,40.66
2023-05-23T18:11:51.225Z,40.74
2023-05-23T18:12:53.362Z,40.77
2023-05-23T18:13:55.855Z,40.93
2023-05-23T18:14:58.255Z,40.95
2023-05-23T18:16:02.502Z,41.04
2023-05-23T18:18:18.519Z,41.25
2023-05-23T18:19:23.212Z,41.44
2023-05-23T18:20:28.706Z,41.49
2023-05-23T18:21:33.759Z,41.59
2023-05-23T18:22:38.435Z,41.66
2023-05-23T18:23:43.663Z,41.72
2023-05-23T18:24:48.275Z,41.83
2023-05-23T18:25:53.173Z,41.92
2023-05-23T18:26:58.288Z,42.07
2023-05-23T18:28:03.971Z,42.27
2023-05-23T18:29:08.594Z,42.43
2023-05-23T18:30:14.472Z,42.51
2023-05-23T18:31:19.242Z,42.58
2023-05-23T18:32:23.792Z,42.68
2023-05-23T18:33:29.209Z,42.67
2023-05-23T18:34:33.624Z,42.78
2023-05-23T18:35:38.201Z,42.85
2023-05-23T18:36:42.813Z,42.89
2023-05-23T18:37:47.402Z,42.91
2023-05-23T18:38:52.649Z,43.01
2023-05-23T18:39:57.144Z,43.05
2023-05-23T18:41:02.345Z,43.11
2023-05-23T18:42:10.146Z,43.11
2023-05-23T18:43:15.239Z,43.08
2023-05-23T18:44:21.111Z,43.20
2023-05-23T18:45:25.907Z,43.27
2023-05-23T18:46:31.693Z,43.29
2023-05-23T18:47:34.580Z,43.46
2023-05-23T18:48:39.144Z,43.63
2023-05-23T18:49:43.755Z,43.63
2023-05-23T18:50:48.492Z,43.64
2023-05-23T18:51:53.151Z,43.68
2023-05-23T18:52:57.593Z,43.77
2023-05-23T18:54:02.834Z,43.81
2023-05-23T18:55:07.078Z,44.05
2023-05-23T18:56:12.195Z,44.02
2023-05-23T18:57:16.784Z,44.23
2023-05-23T18:58:21.424Z,44.32
2023-05-23T18:59:26.206Z,44.36
2023-05-23T19:00:30.801Z,44.60
2023-05-23T19:01:35.485Z,44.48
2023-05-23T19:02:41.000Z,44.64
2023-05-23T19:03:46.331Z,44.69
2023-05-23T19:04:50.640Z,44.72
2023-05-23T19:05:55.178Z,44.71
2023-05-23T19:07:00.318Z,44.71
2023-05-23T19:08:04.900Z,44.71
2023-05-23T19:09:09.491Z,44.71
2023-05-23T19:10:14.687Z,44.73
2023-05-23T19:11:19.350Z,44.79
2023-05-23T19:12:23.964Z,44.93
2023-05-23T19:13:29.659Z,44.97
2023-05-23T19:14:34.690Z,45.08
2023-05-23T19:15:39.769Z,45.04
2023-05-23T19:16:44.457Z,45.12
2023-05-23T19:17:49.229Z,45.43
2023-05-23T19:18:53.618Z,45.36
2023-05-23T19:19:58.129Z,45.48
2023-05-23T19:21:02.846Z,45.47
2023-05-23T19:22:07.360Z,45.47
2023-05-23T19:23:12.358Z,45.71
2023-05-23T19:24:17.322Z,45.85
2023-05-23T19:25:20.458Z,45.94
2023-05-23T19:26:25.015Z,46.15
2023-05-23T19:27:29.292Z,46.11
2023-05-23T19:28:33.889Z,46.37
2023-05-23T19:29:38.649Z,46.46
2023-05-23T19:30:44.175Z,46.46
2023-05-23T19:31:48.806Z,46.51
2023-05-23T19:32:53.900Z,46.60
2023-05-23T19:33:58.897Z,46.48
2023-05-23T19:35:04.108Z,46.53
2023-05-23T19:36:08.825Z,46.60
2023-05-23T19:37:13.819Z,46.89
2023-05-23T19:38:18.164Z,46.80
2023-05-23T19:39:23.356Z,46.83
2023-05-23T19:40:28.022Z,46.81
2023-05-23T19:41:33.118Z,46.90
2023-05-23T19:42:37.573Z,46.96
2023-05-23T19:43:42.095Z,47.00
2023-05-23T19:44:46.620Z,47.21
2023-05-23T19:45:51.112Z,47.34
2023-05-23T19:46:55.726Z,47.82
2023-05-23T19:48:00.450Z,47.78
2023-05-23T19:49:05.054Z,48.07
2023-05-23T19:50:14.310Z,48.07
2023-05-23T19:51:18.835Z,48.02
2023-05-23T19:52:23.297Z,48.27
2023-05-23T19:53:28.431Z,48.42
2023-05-23T19:54:33.733Z,48.51
2023-05-23T19:55:38.072Z,48.42
2023-05-23T19:56:42.691Z,48.55
2023-05-23T19:57:47.249Z,48.50
2023-05-23T19:58:51.819Z,48.67
2023-05-23T19:59:56.480Z,48.69
2023-05-23T20:01:01.281Z,48.69
2023-05-23T20:02:06.237Z,48.75
2023-05-23T20:03:11.296Z,48.80
2023-05-23T20:04:15.963Z,48.83
2023-05-23T20:05:18.935Z,49.11
2023-05-23T20:06:23.714Z,49.05
2023-05-23T20:07:28.760Z,48.89
2023-05-23T20:08:33.323Z,49.02
2023-05-23T20:09:38.344Z,49.16
2023-05-23T20:10:43.753Z,49.20
2023-05-23T20:11:47.978Z,49.14
2023-05-23T20:12:52.470Z,49.13
2023-05-23T20:13:57.646Z,49.10
2023-05-23T20:15:02.173Z,49.31
2023-05-23T20:16:06.933Z,49.31
2023-05-23T20:17:11.455Z,49.56
2023-05-23T20:18:16.574Z,49.77
2023-05-23T20:19:20.817Z,49.78
2023-05-23T20:20:28.714Z,49.65
2023-05-23T20:21:33.373Z,49.67
2023-05-23T20:22:37.946Z,49.67
2023-05-23T20:23:43.054Z,49.61
2023-05-23T20:24:47.572Z,49.72
2023-05-23T20:25:52.235Z,49.81
2023-05-23T20:26:57.508Z,49.85
2023-05-23T20:28:02.570Z,50.09
2023-05-23T20:29:07.134Z,50.13
2023-05-23T20:30:12.613Z,50.32
2023-05-23T20:31:18.714Z,50.47
2023-05-23T20:32:23.379Z,50.59
2023-05-23T20:33:28.431Z,51.00
2023-05-23T20:34:33.417Z,50.96
2023-05-23T20:35:38.039Z,50.89
2023-05-23T20:36:42.690Z,50.89
2023-05-23T20:37:47.720Z,51.10
2023-05-23T20:38:52.325Z,51.22
2023-05-23T20:39:57.037Z,51.08
2023-05-23T20:41:00.865Z,51.01
2023-05-23T20:42:05.693Z,50.97
2023-05-23T20:43:10.293Z,51.03
2023-05-23T20:44:14.849Z,51.29
2023-05-23T20:45:19.928Z,51.19
2023-05-23T20:46:24.526Z,51.21
2023-05-23T20:47:29.301Z,51.29
2023-05-23T20:48:34.292Z,51.47
2023-05-23T20:49:39.316Z,51.42
2023-05-23T20:50:44.345Z,51.62
2023-05-23T20:51:50.059Z,51.88
2023-05-23T20:52:54.659Z,51.58
2023-05-23T20:53:59.174Z,51.52
2023-05-23T20:55:03.885Z,51.54
2023-05-23T20:56:09.137Z,51.63
2023-05-23T20:57:13.635Z,51.49
2023-05-23T20:58:18.247Z,51.75
2023-05-23T20:59:23.821Z,52.06
2023-05-23T21:00:28.454Z,52.15
2023-05-23T21:01:33.412Z,52.19
2023-05-23T21:02:38.317Z,52.32